Time;durP1;ratioP1;P1;durP2;ratioP2;P2;SDS_P1;SDS_P2;PMS_P1;PMS_P2;Temp;Humidity;BMP_temperature;BMP_pressure;BME280_temperature;BME280_humidity;BME280_pressure;Samples;Min_cycle;Max_cycle;Signal;HPM_P1;HPM_P2
2023/10/26 00:01:39;;;;;;;40.13;9.37;;;;;;;-143.21;89.67;71354.41;4974307;28;20203;-79
2023/10/26 00:04:06;;;;;;;38.17;9.33;;;;;;;-143.21;89.94;71364.31;4974450;28;20196;-79
2023/10/26 00:06:34;;;;;;;39.83;9.47;;;;;;;-143.21;89.53;71382.16;4973958;28;20208;-79
2023/10/26 00:09:01;;;;;;;27.43;8.70;;;;;;;-143.21;89.74;71366.31;4974646;28;20196;-80
2023/10/26 00:11:30;;;;;;;40.30;9.63;;;;;;;-143.21;90.84;71386.13;4974007;28;20259;-79
2023/10/26 00:13:56;;;;;;;33.93;8.83;;;;;;;-143.21;90.70;71413.88;4970364;28;20215;-79
2023/10/26 00:16:23;;;;;;;31.57;8.47;;;;;;;-143.21;90.73;71409.91;4954730;28;20261;-79
2023/10/26 00:18:50;;;;;;;37.10;8.43;;;;;;;-143.21;91.07;71423.78;4954107;28;20229;-79
2023/10/26 00:21:17;;;;;;;28.40;8.23;;;;;;;-143.21;91.27;71409.91;4953476;29;20748;-79
2023/10/26 00:23:45;;;;;;;33.50;7.67;;;;;;;-143.21;91.71;71411.91;4954159;29;20652;-80
2023/10/26 00:26:12;;;;;;;36.60;7.30;;;;;;;-143.21;92.50;71409.91;4957715;28;20213;-80
2023/10/26 00:28:39;;;;;;;33.00;7.93;;;;;;;-143.21;92.57;71419.84;4954209;29;20240;-80
2023/10/26 00:31:06;;;;;;;42.87;8.90;;;;;;;-143.21;92.73;71423.78;4958659;28;20197;-79
2023/10/26 00:33:33;;;;;;;32.53;8.07;;;;;;;-143.21;93.25;71423.78;4955800;28;20216;-78
2023/10/26 00:36:00;;;;;;;34.83;8.30;;;;;;;-143.21;93.36;71427.75;4973650;28;20197;-79
2023/10/26 00:38:26;;;;;;;40.50;9.33;;;;;;;-143.21;93.26;71417.84;4988214;28;20236;-79
2023/10/26 00:40:55;;;;;;;38.93;8.60;;;;;;;-143.21;93.45;71425.78;4960434;28;20300;-79
2023/10/26 00:43:24;;;;;;;36.73;9.00;;;;;;;-143.21;93.68;71421.81;4954030;29;20193;-79
2023/10/26 00:45:52;;;;;;;34.77;8.10;;;;;;;-143.21;93.18;71409.91;4954122;29;20197;-80
2023/10/26 00:48:19;;;;;;;35.70;7.97;;;;;;;-143.21;92.81;71423.78;4954135;28;20225;-79
2023/10/26 00:50:46;;;;;;;40.70;8.97;;;;;;;-143.21;93.15;71419.84;4953701;29;20609;-80
2023/10/26 00:53:14;;;;;;;31.27;8.70;;;;;;;-143.21;93.04;71409.91;4953880;28;20200;-79
2023/10/26 00:55:41;;;;;;;33.60;8.90;;;;;;;-143.21;93.04;71423.78;4953809;28;20579;-79
2023/10/26 00:58:11;;;;;;;35.40;7.50;;;;;;;-143.21;93.42;71415.88;4953827;29;20316;-80
2023/10/26 01:00:39;;;;;;;40.17;8.37;;;;;;;-143.21;93.24;71407.94;4954106;29;20201;-79
2023/10/26 01:03:06;;;;;;;39.07;8.57;;;;;;;-143.21;93.14;71411.91;4954142;28;20201;-79
2023/10/26 01:05:33;;;;;;;28.40;7.43;;;;;;;-143.21;93.45;71417.84;4954336;29;20190;-79
2023/10/26 01:07:59;;;;;;;31.90;8.03;;;;;;;-143.21;93.65;71431.72;4953618;29;20236;-79
2023/10/26 01:10:27;;;;;;;37.10;8.40;;;;;;;-143.21;94.04;71429.75;4971822;28;20205;-79
2023/10/26 01:12:54;;;;;;;32.03;7.37;;;;;;;-143.21;94.35;71437.69;4973039;28;20616;-83
2023/10/26 01:15:24;;;;;;;32.30;8.37;;;;;;;-143.21;94.45;71437.69;4972745;28;20247;-83
2023/10/26 01:17:51;;;;;;;29.93;7.73;;;;;;;-143.21;94.10;71423.78;4973417;28;20224;-83
2023/10/26 01:20:18;;;;;;;28.80;6.97;;;;;;;-143.21;93.47;71423.78;4973306;28;20197;-82
2023/10/26 01:22:46;;;;;;;32.37;7.67;;;;;;;-143.21;93.49;71417.84;4972842;28;20668;-83
2023/10/26 01:25:13;;;;;;;25.53;7.17;;;;;;;-143.21;93.42;71417.84;4972923;28;20197;-83
2023/10/26 01:27:40;;;;;;;27.53;7.47;;;;;;;-143.21;93.47;71423.78;4972371;28;20705;-80
2023/10/26 01:30:08;;;;;;;29.23;7.67;;;;;;;-143.21;93.85;71431.72;4972843;28;20200;-79
2023/10/26 01:32:35;;;;;;;33.30;7.00;;;;;;;-143.21;93.10;71431.72;4972739;28;20260;-80
2023/10/26 01:35:02;;;;;;;28.87;6.63;;;;;;;-143.21;93.05;71431.72;4972822;28;20185;-79
2023/10/26 01:37:28;;;;;;;26.10;7.90;;;;;;;-143.21;93.43;71427.75;4972235;28;20664;-80
2023/10/26 01:39:57;;;;;;;34.60;8.00;;;;;;;-143.21;93.06;71429.75;4972519;28;20216;-83
2023/10/26 01:42:23;;;;;;;27.07;6.90;;;;;;;-143.21;92.55;71425.78;4973089;28;20207;-82
2023/10/26 01:44:50;;;;;;;30.37;7.53;;;;;;;-143.21;92.70;71415.88;4972527;28;20652;-83
2023/10/26 01:47:17;;;;;;;32.77;7.37;;;;;;;-143.21;92.69;71415.88;4973187;28;20259;-82
2023/10/26 01:49:45;;;;;;;32.10;7.43;;;;;;;-143.21;92.59;71413.88;4971491;28;20200;-83
2023/10/26 01:52:12;;;;;;;27.63;7.23;;;;;;;-143.21;92.69;71411.91;4966796;28;20232;-82
2023/10/26 01:54:38;;;;;;;36.67;7.60;;;;;;;-143.21;92.94;71425.78;4954687;28;20209;-82
2023/10/26 01:57:09;;;;;;;37.53;7.40;;;;;;;-143.21;92.99;71427.75;4966799;28;20625;-82
2023/10/26 01:59:35;;;;;;;30.37;7.23;;;;;;;-143.21;92.76;71435.69;4970331;28;20232;-83
2023/10/26 02:02:02;;;;;;;36.97;7.97;;;;;;;-143.21;92.69;71431.72;4962213;28;20208;-82
2023/10/26 02:04:29;;;;;;;34.47;7.53;;;;;;;-143.21;92.62;71435.69;4971298;28;20196;-83
2023/10/26 02:06:56;;;;;;;34.47;7.20;;;;;;;-143.21;93.01;71429.75;4965561;28;20954;-83
2023/10/26 02:09:23;;;;;;;29.20;7.67;;;;;;;-143.21;93.15;71423.78;4970533;28;20203;-82
2023/10/26 02:11:49;;;;;;;27.23;7.60;;;;;;;-143.21;92.44;71413.88;4969304;28;20205;-82
2023/10/26 02:14:18;;;;;;;29.37;7.90;;;;;;;-143.21;92.63;71421.81;4970346;28;20192;-82
2023/10/26 02:16:44;;;;;;;31.40;8.07;;;;;;;-143.21;92.73;71417.84;4971334;28;20193;-82
2023/10/26 02:19:12;;;;;;;29.77;7.67;;;;;;;-143.21;92.74;71439.66;4971781;28;20651;-80
2023/10/26 02:21:39;;;;;;;33.33;7.40;;;;;;;-143.21;93.41;71435.69;4966348;28;20209;-79
2023/10/26 02:24:07;;;;;;;26.73;7.13;;;;;;;-143.21;93.75;71453.53;4962466;28;20274;-79
2023/10/26 02:26:34;;;;;;;33.07;8.47;;;;;;;-143.21;93.52;71447.59;4967672;28;20248;-79
2023/10/26 02:29:01;;;;;;;23.50;7.40;;;;;;;-143.21;93.36;71437.69;4969243;28;20600;-81
2023/10/26 02:31:29;;;;;;;41.27;8.00;;;;;;;-143.21;92.65;71421.81;4972390;28;20273;-80
2023/10/26 02:33:56;;;;;;;36.50;8.33;;;;;;;-143.21;92.66;71429.75;4963455;28;20209;-80
2023/10/26 02:36:23;;;;;;;36.67;8.43;;;;;;;-143.21;92.65;71423.78;4952414;29;20205;-80
2023/10/26 02:38:49;;;;;;;29.17;8.30;;;;;;;-143.21;92.15;71415.88;4957326;28;20621;-80
2023/10/26 02:41:16;;;;;;;31.97;7.90;;;;;;;-143.21;92.40;71415.88;4971915;28;20197;-79
2023/10/26 02:43:44;;;;;;;31.87;8.90;;;;;;;-143.21;92.60;71421.81;4954552;28;20205;-80
2023/10/26 02:46:11;;;;;;;21.50;7.07;;;;;;;-143.21;92.81;71419.84;4956325;28;20608;-79
2023/10/26 02:48:39;;;;;;;25.83;7.93;;;;;;;-143.21;92.86;71427.75;4966235;28;20214;-79
2023/10/26 02:51:06;;;;;;;27.50;7.83;;;;;;;-143.21;92.97;71431.72;4968396;28;20208;-79
2023/10/26 02:53:33;;;;;;;22.97;7.40;;;;;;;-143.21;92.61;71427.75;4971107;28;20201;-80
2023/10/26 02:56:00;;;;;;;21.77;7.33;;;;;;;-143.21;92.17;71439.66;4958142;28;20665;-80
2023/10/26 02:58:27;;;;;;;27.50;7.50;;;;;;;-143.21;92.40;71443.63;4967689;28;20230;-80
2023/10/26 03:00:54;;;;;;;29.47;7.37;;;;;;;-143.21;92.77;71451.56;4970618;28;20300;-80
2023/10/26 03:03:21;;;;;;;24.90;6.70;;;;;;;-143.21;92.80;71457.50;4973260;28;20283;-79
2023/10/26 03:05:49;;;;;;;30.13;8.40;;;;;;;-143.21;92.79;71455.53;4956009;28;20205;-82
2023/10/26 03:08:16;;;;;;;22.13;7.20;;;;;;;-143.21;92.60;71453.53;4969020;28;20205;-82
2023/10/26 03:10:43;;;;;;;33.43;6.93;;;;;;;-143.21;91.99;71445.59;4970679;28;20213;-81
2023/10/26 03:13:11;;;;;;;23.33;6.90;;;;;;;-143.21;91.99;71449.56;4972267;28;20283;-80
2023/10/26 03:15:39;;;;;;;22.37;6.90;;;;;;;-143.21;92.20;71453.53;4968284;28;20209;-79
2023/10/26 03:18:06;;;;;;;23.07;6.80;;;;;;;-143.21;91.64;71463.44;4973582;28;20219;-80
2023/10/26 03:20:34;;;;;;;26.97;8.00;;;;;;;-143.21;92.07;71459.47;4957488;28;20204;-80
2023/10/26 03:23:02;;;;;;;23.60;6.63;;;;;;;-143.21;92.68;71473.38;4957094;28;20209;-80
2023/10/26 03:25:29;;;;;;;21.87;7.03;;;;;;;-143.21;92.88;71483.28;4961435;28;20193;-80
2023/10/26 03:27:56;;;;;;;29.00;6.93;;;;;;;-143.21;92.77;71475.34;4959276;28;20323;-80
2023/10/26 03:30:22;;;;;;;21.67;7.37;;;;;;;-143.21;92.63;71473.38;4969994;28;20211;-80
2023/10/26 03:32:49;;;;;;;26.50;6.27;;;;;;;-143.21;93.18;71473.38;4962629;28;20399;-79
2023/10/26 03:35:16;;;;;;;30.03;6.93;;;;;;;-143.21;93.00;71477.34;4967577;28;20579;-78
2023/10/26 03:37:43;;;;;;;20.97;6.57;;;;;;;-143.21;92.76;71479.31;4962555;28;20201;-80
2023/10/26 03:40:13;;;;;;;26.53;7.57;;;;;;;-143.21;92.93;71477.34;4973993;28;20256;-82
2023/10/26 03:42:40;;;;;;;27.43;6.50;;;;;;;-143.21;92.83;71473.38;4967193;28;20259;-82
2023/10/26 03:45:08;;;;;;;18.20;6.30;;;;;;;-143.21;93.24;71485.25;4965730;28;20205;-81
2023/10/26 03:47:35;;;;;;;28.23;7.00;;;;;;;-143.21;93.00;71469.41;4957900;28;20205;-82
2023/10/26 03:50:01;;;;;;;26.33;7.03;;;;;;;-143.21;93.12;71469.41;4970286;28;20216;-83
2023/10/26 03:52:28;;;;;;;21.40;6.57;;;;;;;-143.21;92.23;71455.53;4969255;28;20240;-83
2023/10/26 03:54:55;;;;;;;23.07;6.43;;;;;;;-143.21;92.26;71457.50;4967198;28;20193;-83
2023/10/26 03:57:23;;;;;;;22.77;7.30;;;;;;;-143.21;92.74;71461.47;4974499;28;20208;-83
2023/10/26 03:59:50;;;;;;;28.40;6.83;;;;;;;-143.21;92.87;71451.56;4965410;28;20221;-83
2023/10/26 04:02:23;;;;;;;24.20;6.93;;;;;;;-143.21;92.71;71459.47;4973288;28;20201;-83
2023/10/26 04:04:56;;;;;;;21.43;7.63;;;;;;;-143.21;93.04;71471.38;4967918;28;20208;-80
2023/10/26 04:07:23;;;;;;;24.70;7.00;;;;;;;-143.21;93.68;71483.28;4955033;28;20570;-79
2023/10/26 04:09:51;;;;;;;27.17;7.77;;;;;;;-143.21;93.70;71485.25;4968784;28;20220;-79
2023/10/26 04:12:18;;;;;;;22.40;7.63;;;;;;;-143.21;93.54;71485.25;4972488;28;20200;-81
2023/10/26 04:14:46;;;;;;;32.83;7.93;;;;;;;-143.21;93.84;71477.34;4973908;28;20189;-80
2023/10/26 04:17:15;;;;;;;21.07;7.70;;;;;;;-143.21;94.20;71479.31;4971330;28;20197;-79
2023/10/26 04:19:42;;;;;;;27.70;7.67;;;;;;;-143.21;93.84;71479.31;4961227;28;20316;-79
2023/10/26 04:22:08;;;;;;;27.53;8.30;;;;;;;-143.21;93.89;71493.19;4957233;28;20676;-79
2023/10/26 04:24:35;;;;;;;30.63;7.80;;;;;;;-143.21;94.27;71495.19;4962937;28;20202;-80
2023/10/26 04:27:02;;;;;;;25.23;7.33;;;;;;;-143.21;94.25;71491.22;4968419;28;20192;-80
2023/10/26 04:29:29;;;;;;;21.13;7.17;;;;;;;-143.21;94.15;71499.13;4973050;28;20703;-80
2023/10/26 04:31:57;;;;;;;17.83;7.40;;;;;;;-143.21;94.12;71479.31;4973212;28;20664;-79
2023/10/26 04:34:24;;;;;;;20.77;6.80;;;;;;;-143.21;93.74;71485.25;4973153;28;20201;-88
2023/10/26 04:36:50;;;;;;;31.63;7.20;;;;;;;-143.21;93.49;71481.28;4973769;28;20205;-87
2023/10/26 04:39:18;;;;;;;26.63;7.83;;;;;;;-143.21;93.76;71483.28;4969857;28;20221;-86
2023/10/26 04:41:45;;;;;;;25.07;7.73;;;;;;;-143.21;93.36;71485.25;4973172;28;20279;-86
2023/10/26 04:44:14;;;;;;;22.87;7.13;;;;;;;-143.21;93.44;71487.25;4970648;28;20200;-85
2023/10/26 04:46:44;;;;;;;27.63;8.60;;;;;;;-143.21;94.01;71493.19;4968920;28;20212;-85
2023/10/26 04:49:13;;;;;;;21.57;8.60;;;;;;;-143.21;94.44;71497.16;4970215;28;20188;-84
2023/10/26 04:51:40;;;;;;;27.87;8.73;;;;;;;-143.21;93.68;71485.25;4968236;28;20565;-87
2023/10/26 04:54:07;;;;;;;25.60;8.50;;;;;;;-143.21;93.99;71487.25;4965694;28;20193;-87
2023/10/26 04:56:34;;;;;;;27.80;9.57;;;;;;;-143.21;94.12;71491.22;4954369;28;20194;-86
2023/10/26 04:59:05;;;;;;;27.57;9.60;;;;;;;-143.21;94.00;71491.22;4967660;28;20225;-87
2023/10/26 05:01:32;;;;;;;21.40;9.30;;;;;;;-143.21;94.20;71495.19;4967327;28;20212;-88
2023/10/26 05:03:58;;;;;;;28.00;9.47;;;;;;;-143.21;94.26;71503.09;4954729;29;20197;-89
2023/10/26 05:06:27;;;;;;;29.67;9.47;;;;;;;-143.21;94.70;71507.06;4955138;29;20216;-87
2023/10/26 05:08:54;;;;;;;26.37;8.80;;;;;;;-143.21;94.63;71499.13;4961638;28;20212;-86
2023/10/26 05:11:21;;;;;;;27.90;9.67;;;;;;;-143.21;94.66;71491.22;4975599;28;20592;-85
2023/10/26 05:13:52;;;;;;;29.53;10.70;;;;;;;-143.21;94.74;71493.19;4975374;28;20197;-87
2023/10/26 05:16:19;;;;;;;26.77;10.80;;;;;;;-143.21;94.21;71485.25;4973786;28;20204;-86
2023/10/26 05:18:46;;;;;;;22.60;9.57;;;;;;;-143.21;94.07;71507.06;4973430;28;20253;-87
2023/10/26 05:21:12;;;;;;;26.33;10.70;;;;;;;-143.21;94.20;71518.97;4973987;28;20547;-88
2023/10/26 05:23:43;;;;;;;29.50;11.07;;;;;;;-143.21;94.65;71509.06;4975422;28;20225;-88
2023/10/26 05:26:09;;;;;;;27.63;10.40;;;;;;;-143.21;94.25;71516.97;4977138;28;20197;-88
2023/10/26 05:28:36;;;;;;;26.20;9.20;;;;;;;-143.21;94.18;71509.06;4976605;28;20232;-87
2023/10/26 05:31:03;;;;;;;21.90;9.17;;;;;;;-143.21;94.33;71526.91;4972970;28;20216;-86
2023/10/26 05:33:30;;;;;;;26.00;9.00;;;;;;;-143.21;94.21;71509.06;4972734;28;20200;-86
2023/10/26 05:35:59;;;;;;;30.20;9.77;;;;;;;-143.21;94.81;71524.91;4972666;28;20204;-85
2023/10/26 05:38:26;;;;;;;33.77;12.53;;;;;;;-143.21;94.26;71520.94;4972769;28;20589;-84
2023/10/26 05:40:56;;;;;;;34.30;14.57;;;;;;;-143.21;94.36;71522.94;4972745;28;20204;-85
2023/10/26 05:43:23;;;;;;;36.43;11.50;;;;;;;-143.21;93.91;71530.88;4972859;28;20201;-85
2023/10/26 05:45:53;;;;;;;32.43;9.93;;;;;;;-143.21;94.15;71532.84;4972862;28;20197;-85
2023/10/26 05:48:23;;;;;;;28.47;9.37;;;;;;;-143.21;94.62;71526.91;4972960;28;20201;-84
2023/10/26 05:50:51;;;;;;;34.40;11.10;;;;;;;-143.21;94.69;71516.97;4972435;28;20197;-84
2023/10/26 05:53:18;;;;;;;28.90;11.10;;;;;;;-143.21;94.21;71513.03;4973063;28;20192;-84
2023/10/26 05:55:58;;;;;;;31.60;12.00;;;;;;;-143.21;94.43;71516.97;4972570;28;20212;-84
2023/10/26 05:58:25;;;;;;;40.00;16.23;;;;;;;-143.21;94.12;71518.97;4972025;28;20181;-85
2023/10/26 06:00:52;;;;;;;34.40;15.07;;;;;;;-143.21;93.91;71503.09;4982803;28;20609;-84
2023/10/26 06:03:19;;;;;;;34.27;12.93;;;;;;;-143.21;93.54;71503.09;4991724;28;20667;-82
2023/10/26 06:05:51;;;;;;;28.33;12.63;;;;;;;-143.21;93.26;71491.22;4974490;28;20209;-84
2023/10/26 06:08:18;;;;;;;37.43;12.53;;;;;;;-143.21;93.12;71493.19;4972479;28;20196;-84
2023/10/26 06:10:45;;;;;;;38.33;12.33;;;;;;;-143.21;92.98;71487.25;4972509;28;20204;-85
2023/10/26 06:13:24;;;;;;;27.50;10.67;;;;;;;-143.21;92.43;71481.28;4972306;28;20207;-87
2023/10/26 06:16:06;;;;;;;27.57;11.47;;;;;;;-143.21;92.07;71479.31;4972091;28;20193;-86
2023/10/26 06:18:33;;;;;;;33.53;12.23;;;;;;;-143.21;91.62;71467.41;4972202;28;20197;-84
2023/10/26 06:21:01;;;;;;;32.57;12.07;;;;;;;-143.21;91.65;71469.41;4972309;28;20252;-84
2023/10/26 06:23:28;;;;;;;29.70;10.43;;;;;;;-143.21;91.88;71461.47;4971503;28;20268;-84
2023/10/26 06:25:59;;;;;;;28.73;10.77;;;;;;;-143.21;92.16;71467.41;4971690;28;20255;-84
2023/10/26 06:28:28;;;;;;;26.20;11.40;;;;;;;-143.21;91.96;71455.53;4971709;28;20235;-83
2023/10/26 06:31:08;;;;;;;31.27;10.77;;;;;;;-143.21;91.80;71459.47;4971836;28;20196;-84
2023/10/26 06:33:35;;;;;;;33.77;11.17;;;;;;;-143.21;91.74;71449.56;4972090;28;20173;-83
2023/10/26 06:36:02;;;;;;;24.10;10.33;;;;;;;-143.21;91.63;71455.53;4972888;28;20193;-84
2023/10/26 06:38:29;;;;;;;29.00;11.50;;;;;;;-143.21;91.69;71461.47;4976078;28;20683;-84
2023/10/26 06:40:57;;;;;;;28.57;11.87;;;;;;;-143.21;91.58;71449.56;4976039;28;20220;-84
2023/10/26 06:43:24;;;;;;;30.40;11.43;;;;;;;-143.21;91.60;71457.50;4976489;28;20305;-84
2023/10/26 06:45:53;;;;;;;30.70;11.70;;;;;;;-143.21;91.95;71459.47;4976254;28;20288;-83
2023/10/26 06:48:20;;;;;;;36.17;11.60;;;;;;;-143.21;91.94;71449.56;4975730;28;20698;-84
2023/10/26 06:50:47;;;;;;;34.73;13.17;;;;;;;-143.21;91.83;71445.59;4975097;28;20211;-84
2023/10/26 06:53:15;;;;;;;33.27;12.33;;;;;;;-143.21;91.44;71443.63;4975854;28;20201;-85
2023/10/26 06:55:42;;;;;;;32.53;12.67;;;;;;;-143.21;91.15;71435.69;4975449;28;20208;-85
2023/10/26 06:58:09;;;;;;;32.23;14.27;;;;;;;-143.21;91.05;71435.69;4975273;28;20212;-84
2023/10/26 07:00:37;;;;;;;31.87;13.63;;;;;;;-143.21;90.61;71419.84;4975195;28;20225;-84
2023/10/26 07:03:05;;;;;;;32.80;13.60;;;;;;;-143.21;90.72;71431.72;4991302;28;20203;-84
2023/10/26 07:05:34;;;;;;;30.20;13.17;;;;;;;-143.21;90.47;71419.84;4977219;28;20303;-84
2023/10/26 07:08:01;;;;;;;34.17;12.80;;;;;;;-143.21;90.81;71429.75;4974903;28;20209;-83
2023/10/26 07:10:28;;;;;;;29.03;13.23;;;;;;;-143.21;91.07;71417.84;4957368;28;20198;-84
2023/10/26 07:12:55;;;;;;;27.50;12.87;;;;;;;-143.21;91.12;71407.94;4955924;29;20199;-84
2023/10/26 07:15:22;;;;;;;35.57;12.77;;;;;;;-143.21;91.12;71407.94;4956042;28;20261;-84
2023/10/26 07:17:55;;;;;;;37.47;12.67;;;;;;;-143.21;90.95;71415.88;4956305;29;20562;-84
2023/10/26 07:20:23;;;;;;;31.57;12.10;;;;;;;-143.21;91.19;71403.97;4956320;29;20535;-85
2023/10/26 07:22:52;;;;;;;40.57;11.80;;;;;;;-143.21;90.97;71402.00;4955900;28;20198;-83
2023/10/26 07:25:19;;;;;;;27.43;10.97;;;;;;;-143.21;90.91;71390.09;4955346;28;20213;-85
2023/10/26 07:27:46;;;;;;;27.40;11.47;;;;;;;-143.21;90.47;71378.19;4956127;28;20327;-85
2023/10/26 07:30:13;;;;;;;33.53;10.70;;;;;;;-143.21;90.33;71380.19;4956275;29;20634;-85
2023/10/26 07:32:40;;;;;;;27.97;10.23;;;;;;;-143.21;89.85;71356.38;4956000;28;20204;-86
2023/10/26 07:35:10;;;;;;;33.40;11.40;;;;;;;-143.21;89.18;71350.44;4955763;29;20205;-85
2023/10/26 07:37:38;;;;;;;25.67;10.10;;;;;;;-143.21;88.50;71332.59;4956014;28;20225;-85
2023/10/26 07:40:07;;;;;;;27.77;9.10;;;;;;;-143.21;87.55;71320.69;4970353;28;20746;-85
2023/10/26 07:42:34;;;;;;;29.43;10.07;;;;;;;-143.21;86.69;71316.75;4974980;28;20186;-84
2023/10/26 07:45:01;;;;;;;35.90;9.60;;;;;;;-143.21;85.94;71314.75;4974306;28;20584;-85
2023/10/26 07:47:28;;;;;;;30.90;10.23;;;;;;;-143.21;86.01;71316.75;4973425;28;20197;-85
2023/10/26 07:49:55;;;;;;;27.90;8.10;;;;;;;-143.21;85.83;71304.84;4975067;28;20662;-84
2023/10/26 07:52:21;;;;;;;32.07;9.43;;;;;;;-143.21;85.53;71306.81;4974360;28;20201;-84
2023/10/26 07:54:50;;;;;;;27.63;8.07;;;;;;;-143.21;84.62;71290.97;4973054;28;20236;-80
2023/10/26 07:57:19;;;;;;;26.23;8.93;;;;;;;-143.21;83.98;71283.03;4973973;28;20967;-83
2023/10/26 07:59:49;;;;;;;30.43;8.20;;;;;;;-143.21;83.90;71271.13;4975402;28;20715;-88
2023/10/26 08:02:16;;;;;;;24.20;5.77;;;;;;;-143.21;79.02;71255.28;4993959;28;20231;-88
2023/10/26 08:04:44;;;;;;;22.73;5.37;;;;;;;-143.21;75.15;71227.53;4995965;28;20196;-88
2023/10/26 08:07:10;;;;;;;18.35;5.18;;;;;;;-143.21;72.13;71197.78;5001046;28;20354;-88
2023/10/26 08:09:38;;;;;;;18.52;4.63;;;;;;;-143.21;70.71;71170.03;5000199;28;20196;-89
2023/10/26 08:12:11;;;;;;;17.00;4.25;;;;;;;-143.21;70.06;71146.25;4997557;28;20193;-92
2023/10/26 08:14:41;;;;;;;16.85;3.92;;;;;;;-143.21;69.05;71118.50;4995204;28;20630;-90
2023/10/26 08:17:08;;;;;;;18.15;4.75;;;;;;;-143.21;66.66;71092.72;4973795;28;20228;-88
2023/10/26 08:19:36;;;;;;;22.10;4.22;;;;;;;-143.21;65.85;71084.78;4964495;28;20196;-91
2023/10/26 08:22:03;;;;;;;21.77;4.47;;;;;;;-143.21;65.52;71062.97;4975158;28;20193;-90
2023/10/26 08:24:30;;;;;;;18.15;4.45;;;;;;;-143.21;65.19;71053.06;4975222;28;20204;-90
2023/10/26 08:26:57;;;;;;;17.30;4.10;;;;;;;-143.21;64.86;71051.09;4971869;28;20208;-89
2023/10/26 08:29:26;;;;;;;18.23;4.05;;;;;;;-143.21;64.22;71039.19;4973753;28;20248;-88
2023/10/26 08:31:53;;;;;;;14.20;3.80;;;;;;;-143.21;64.07;71021.34;4974860;28;20215;-88
2023/10/26 08:34:22;;;;;;;13.88;3.58;;;;;;;-143.21;63.45;71003.50;4966859;28;20220;-90
2023/10/26 08:36:49;;;;;;;17.65;3.50;;;;;;;-143.21;62.62;70981.69;4956265;28;20285;-91
2023/10/26 08:39:17;;;;;;;20.92;3.65;;;;;;;-143.21;61.27;70975.75;4956337;28;20228;-87
2023/10/26 08:41:51;;;;;;;16.38;3.67;;;;;;;-143.21;61.69;70961.88;4956242;29;20233;-89
2023/10/26 08:44:19;;;;;;;14.60;3.50;;;;;;;-143.21;61.65;70944.03;4955535;29;20202;-89
2023/10/26 08:46:53;;;;;;;19.02;4.10;;;;;;;-143.21;61.70;70940.06;4955478;28;20224;-88
2023/10/26 08:49:23;;;;;;;20.17;4.13;;;;;;;-143.21;61.06;70938.09;4955111;29;20583;-89
2023/10/26 08:51:49;;;;;;;13.43;3.45;;;;;;;-143.21;60.79;70926.19;4954812;28;20201;-84
2023/10/26 08:54:17;;;;;;;16.33;3.97;;;;;;;-143.21;60.26;70924.22;4939633;29;20248;-93
2023/10/26 08:56:44;;;;;;;16.60;3.97;;;;;;;-143.21;58.94;70908.34;4954979;28;20272;-85
2023/10/26 08:59:10;;;;;;;19.40;3.20;;;;;;;-143.21;59.36;70910.34;4953792;28;20296;-85
2023/10/26 09:01:37;;;;;;;15.13;3.53;;;;;;;-143.21;59.10;70874.66;4953762;28;20232;-84
2023/10/26 09:04:10;;;;;;;10.52;3.10;;;;;;;-143.21;57.50;70819.16;4954329;28;20226;-85
2023/10/26 09:06:44;;;;;;;10.77;3.40;;;;;;;-143.21;56.94;70751.75;4954395;29;20281;-85
2023/10/26 09:09:11;;;;;;;20.70;3.90;;;;;;;-143.21;55.98;70676.44;4962280;28;21086;-85
2023/10/26 09:11:38;;;;;;;14.38;3.28;;;;;;;-143.21;54.75;70620.94;4973731;28;20200;-84
2023/10/26 09:14:15;;;;;;;15.73;3.50;;;;;;;-143.21;52.57;70563.44;4972516;28;20283;-85
2023/10/26 09:16:43;;;;;;;22.20;3.75;;;;;;;-143.21;51.47;70535.69;4972676;28;20200;-85
2023/10/26 09:19:12;;;;;;;20.95;5.13;;;;;;;-143.21;50.23;70496.06;4973296;28;20213;-85
2023/10/26 09:21:55;;;;;;;21.70;3.70;;;;;;;-143.21;48.57;70442.53;4972636;28;20231;-85
2023/10/26 09:24:31;;;;;;;18.65;3.90;;;;;;;-143.21;48.17;70410.81;4973602;28;20193;-85
2023/10/26 09:27:00;;;;;;;23.42;4.78;;;;;;;-143.21;47.87;70385.06;4973195;28;20185;-85
2023/10/26 09:29:37;;;;;;;21.48;4.05;;;;;;;-143.21;46.16;70359.28;4972953;28;20268;-86
2023/10/26 09:32:05;;;;;;;16.88;4.13;;;;;;;-143.21;46.29;70385.06;4973233;28;20197;-86
2023/10/26 09:34:41;;;;;;;12.18;3.92;;;;;;;-143.21;46.30;70329.56;4973392;28;20284;-86
2023/10/26 09:37:08;;;;;;;11.38;3.50;;;;;;;-143.21;44.86;70254.25;4973762;28;20228;-87
2023/10/26 09:39:48;;;;;;;12.35;3.88;;;;;;;-143.21;43.83;70167.03;4973888;28;20216;-87
2023/10/26 09:42:20;;;;;;;17.95;4.38;;;;;;;-143.21;42.65;70117.50;4975776;28;20184;-87
2023/10/26 09:44:48;;;;;;;17.55;3.30;;;;;;;-143.21;41.74;70113.53;4976142;28;20189;-86
2023/10/26 09:47:17;;;;;;;11.50;2.65;;;;;;;-143.21;41.25;70052.09;4983712;28;20651;-88
2023/10/26 09:49:48;;;;;;;9.15;2.55;;;;;;;-143.21;39.85;70020.38;4980241;28;20690;-88
2023/10/26 09:52:15;;;;;;;12.43;2.90;;;;;;;-143.21;38.87;69982.72;4976118;28;20196;-87
2023/10/26 09:54:43;;;;;;;10.57;2.85;;;;;;;-143.21;38.88;69976.78;4976899;28;20216;-88
2023/10/26 09:57:23;;;;;;;12.35;3.20;;;;;;;-143.21;38.67;69988.66;4976579;28;20287;-86
2023/10/26 09:59:53;;;;;;;14.43;2.65;;;;;;;-143.21;39.11;69978.75;4974201;28;20624;-89
2023/10/26 10:02:21;;;;;;;14.15;3.03;;;;;;;-143.21;39.00;69966.88;4973272;28;20196;-87
2023/10/26 10:04:50;;;;;;;8.50;2.50;;;;;;;-143.21;38.68;70008.50;4972608;28;20260;-88
2023/10/26 10:07:18;;;;;;;5.43;2.20;;;;;;;-143.21;39.16;70042.19;4972897;28;20203;-89
2023/10/26 10:10:09;;;;;;;10.18;2.75;;;;;;;-143.21;39.95;70052.09;4972453;28;20209;-90
2023/10/26 10:12:38;;;;;;;10.57;2.83;;;;;;;-143.21;40.04;70024.34;4972386;28;20193;-89
2023/10/26 10:15:08;;;;;;;9.57;3.13;;;;;;;-143.21;39.63;69984.72;4972307;28;20627;-88
2023/10/26 10:18:03;;;;;;;10.50;2.67;;;;;;;-143.21;39.17;69996.59;4972601;28;20173;-89
2023/10/26 10:20:33;;;;;;;13.88;2.40;;;;;;;-143.21;38.60;69992.63;4971883;28;20722;-88
2023/10/26 10:23:01;;;;;;;6.03;2.03;;;;;;;-143.21;38.80;70008.50;4972478;28;20196;-86
2023/10/26 10:26:02;;;;;;;12.57;2.75;;;;;;;-143.21;39.41;70065.97;4971661;28;20196;-87
2023/10/26 10:28:52;;;;;;;9.68;2.58;;;;;;;-143.21;39.70;70060.03;4972145;28;20706;-88
2023/10/26 10:31:41;;;;;;;12.13;2.80;;;;;;;-143.21;38.84;70107.59;4971803;28;20691;-88
2023/10/26 10:34:10;;;;;;;10.43;2.67;;;;;;;-143.21;40.70;70174.97;4967123;28;20201;-87
2023/10/26 10:37:17;;;;;;;10.23;2.88;;;;;;;-143.21;40.68;70151.19;4972663;28;20205;-88
2023/10/26 10:40:12;;;;;;;12.88;2.88;;;;;;;-143.21;40.88;70123.44;4955366;28;20209;-89
2023/10/26 10:42:40;;;;;;;8.50;2.70;;;;;;;-143.21;40.46;70095.69;4944038;29;20354;-89
2023/10/26 10:45:12;;;;;;;13.15;3.20;;;;;;;-143.21;41.16;70103.63;4953342;28;20591;-89
2023/10/26 10:47:39;;;;;;;8.02;2.75;;;;;;;-143.21;41.30;70081.81;4953017;29;20625;-90
2023/10/26 10:50:16;;;;;;;9.38;3.10;;;;;;;-143.21;41.19;70063.97;4953434;28;20197;-89
2023/10/26 10:52:44;;;;;;;9.32;2.40;;;;;;;-143.21;41.33;70026.31;4953710;28;20223;-89
2023/10/26 10:55:12;;;;;;;8.60;2.70;;;;;;;-143.21;40.89;70020.38;4954224;28;20637;-90
2023/10/26 10:57:56;;;;;;;14.15;4.20;;;;;;;-143.21;41.38;70052.09;4953952;28;20194;-90
2023/10/26 11:00:24;;;;;;;9.27;3.15;;;;;;;-143.21;40.68;70038.22;4953559;28;20225;-87
2023/10/26 11:03:00;;;;;;;8.43;2.83;;;;;;;-143.21;40.59;70024.34;4953228;29;20205;-87
2023/10/26 11:05:44;;;;;;;10.23;2.83;;;;;;;-143.21;39.76;69978.75;4953045;29;20281;-90
2023/10/26 11:08:11;;;;;;;12.70;2.92;;;;;;;-143.21;39.70;69970.84;4953511;29;20197;-90
2023/10/26 11:10:40;;;;;;;8.93;2.65;;;;;;;-143.21;40.28;69984.72;4953632;29;20202;-90
2023/10/26 11:13:07;;;;;;;16.75;3.33;;;;;;;-143.21;40.29;69990.66;4953987;29;20194;-89
2023/10/26 11:15:36;;;;;;;14.27;3.15;;;;;;;-143.21;40.09;69976.78;4953013;28;20740;-89
2023/10/26 11:18:04;;;;;;;8.02;2.30;;;;;;;-143.21;39.72;69976.78;4961601;28;20304;-92